createdAt,value
2018-06-02T00:00:29.826Z,19.90
2018-06-02T00:02:57.602Z,19.80
2018-06-02T00:05:25.300Z,19.70
2018-06-02T00:07:52.951Z,19.90
2018-06-02T00:10:20.859Z,20.20
2018-06-02T00:12:48.532Z,20.10
2018-06-02T00:15:16.176Z,19.90
2018-06-02T00:17:43.889Z,19.60
2018-06-02T00:20:11.552Z,19.30
2018-06-02T00:22:39.404Z,19.50
2018-06-02T00:25:07.108Z,19.90
2018-06-02T00:27:34.954Z,20.00
2018-06-02T00:30:02.732Z,20.20
2018-06-02T00:32:30.529Z,20.00
2018-06-02T00:34:58.205Z,19.80
2018-06-02T00:37:25.985Z,19.80
2018-06-02T00:39:53.735Z,19.80
2018-06-02T00:42:21.510Z,19.80
2018-06-02T00:44:49.184Z,19.80
2018-06-02T00:47:16.962Z,19.90
2018-06-02T00:49:44.760Z,20.10
2018-06-02T00:52:12.616Z,20.00
2018-06-02T00:54:52.271Z,19.70
2018-06-02T00:57:20.150Z,19.60
2018-06-02T00:59:47.926Z,19.70
2018-06-02T01:02:15.623Z,19.50
2018-06-02T01:04:43.487Z,19.80
2018-06-02T01:07:11.285Z,19.60
2018-06-02T01:09:39.282Z,19.70
2018-06-02T01:12:08.147Z,19.90
2018-06-02T01:14:35.921Z,19.90
2018-06-02T01:17:03.690Z,20.00
2018-06-02T01:19:31.488Z,20.00
2018-06-02T01:21:59.112Z,20.20
2018-06-02T01:24:26.917Z,20.40
2018-06-02T01:26:54.613Z,20.30
2018-06-02T01:29:22.389Z,20.40
2018-06-02T01:31:50.164Z,20.30
2018-06-02T01:34:17.921Z,20.20
2018-06-02T01:36:45.697Z,20.00
2018-06-02T01:39:13.617Z,20.00
2018-06-02T01:41:41.352Z,19.80
2018-06-02T01:44:09.242Z,19.80
2018-06-02T01:46:37.007Z,19.40
2018-06-02T01:49:04.884Z,19.70
2018-06-02T01:51:32.512Z,19.60
2018-06-02T01:54:01.084Z,19.70
2018-06-02T01:56:28.752Z,19.70
2018-06-02T01:58:56.501Z,19.80
2018-06-02T02:01:24.173Z,19.90
2018-06-02T02:03:51.952Z,19.60
2018-06-02T02:06:19.650Z,19.50
2018-06-02T02:08:48.157Z,20.30
2018-06-02T02:11:15.929Z,20.20
2018-06-02T02:13:43.671Z,20.30
2018-06-02T02:16:11.497Z,20.10
2018-06-02T02:18:39.326Z,20.10
2018-06-02T02:21:07.210Z,20.40
2018-06-02T02:23:34.981Z,20.10
2018-06-02T02:26:02.757Z,19.90
2018-06-02T02:28:30.456Z,20.00
2018-06-02T02:30:58.228Z,20.10
2018-06-02T02:33:25.916Z,20.20
2018-06-02T02:35:53.658Z,20.00
2018-06-02T02:38:21.339Z,20.00
2018-06-02T02:40:49.029Z,20.30
2018-06-02T02:43:16.884Z,20.20
2018-06-02T02:45:44.591Z,20.20
2018-06-02T02:48:12.440Z,20.10
2018-06-02T02:50:40.220Z,19.90
2018-06-02T02:53:08.197Z,19.90
2018-06-02T02:55:36.084Z,19.90
2018-06-02T02:58:03.873Z,20.20
2018-06-02T03:00:31.517Z,19.90
2018-06-02T03:02:59.225Z,19.60
2018-06-02T03:05:26.973Z,19.90
2018-06-02T03:07:54.751Z,19.90
2018-06-02T03:10:22.396Z,20.20
2018-06-02T03:12:50.198Z,20.00
2018-06-02T03:15:17.898Z,20.00
2018-06-02T03:17:45.678Z,19.90
2018-06-02T03:20:13.634Z,19.90
2018-06-02T03:22:41.513Z,20.00
2018-06-02T03:25:09.209Z,20.20
2018-06-02T03:27:37.065Z,19.90
2018-06-02T03:30:04.845Z,19.40
2018-06-02T03:32:32.496Z,19.60
2018-06-02T03:35:00.290Z,19.80
2018-06-02T03:37:28.070Z,20.20
2018-06-02T03:39:55.760Z,20.20
2018-06-02T03:42:23.440Z,20.40
2018-06-02T03:44:51.189Z,20.30
2018-06-02T03:47:18.966Z,20.40
2018-06-02T03:49:46.746Z,20.60
2018-06-02T03:52:14.603Z,20.10
2018-06-02T03:54:42.320Z,20.20
2018-06-02T03:57:10.072Z,20.30
2018-06-02T03:59:37.950Z,20.40
2018-06-02T04:02:05.830Z,20.10
2018-06-02T04:04:33.603Z,20.50
2018-06-02T04:07:01.379Z,20.40
2018-06-02T04:09:29.077Z,20.60
2018-06-02T04:11:56.748Z,20.50
2018-06-02T04:14:24.392Z,20.30
2018-06-02T04:16:52.179Z,20.30
2018-06-02T04:19:19.955Z,20.30
2018-06-02T04:21:47.731Z,20.30
2018-06-02T04:24:15.440Z,20.10
2018-06-02T04:26:43.321Z,19.90
2018-06-02T04:29:11.085Z,19.80
2018-06-02T04:31:38.939Z,19.70
2018-06-02T04:34:06.589Z,19.80
2018-06-02T04:36:34.387Z,20.10
2018-06-02T04:39:02.062Z,20.00
2018-06-02T04:41:29.735Z,20.30
2018-06-02T04:43:57.388Z,20.00
2018-06-02T04:46:25.109Z,20.00
2018-06-02T04:48:52.740Z,19.80
2018-06-02T04:51:20.431Z,19.90
2018-06-02T04:53:48.129Z,19.80
2018-06-02T04:56:15.882Z,19.50
2018-06-02T04:58:43.693Z,20.10
2018-06-02T05:01:11.537Z,20.30
2018-06-02T05:03:39.315Z,19.90
2018-06-02T05:06:07.177Z,20.00
2018-06-02T05:08:34.969Z,20.20
2018-06-02T05:11:02.744Z,20.00
2018-06-02T05:13:30.440Z,20.40
2018-06-02T05:15:58.199Z,20.20
2018-06-02T05:18:25.896Z,20.10
2018-06-02T05:20:53.652Z,20.10
2018-06-02T05:23:21.426Z,19.90
2018-06-02T05:25:49.100Z,20.20
2018-06-02T05:28:16.768Z,19.90
2018-06-02T05:30:44.476Z,19.30
2018-06-02T05:33:12.431Z,19.80
2018-06-02T05:35:40.290Z,20.00
2018-06-02T05:38:08.016Z,20.10
2018-06-02T05:40:35.869Z,20.70
2018-06-02T05:43:03.635Z,21.00
2018-06-02T05:45:31.413Z,20.90
2018-06-02T05:47:59.212Z,20.80
2018-06-02T05:50:26.883Z,21.00
2018-06-02T05:52:54.565Z,21.00
2018-06-02T05:55:22.337Z,20.70
2018-06-02T05:57:49.984Z,20.60
2018-06-02T06:00:17.694Z,20.00
2018-06-02T06:02:45.358Z,20.10
2018-06-02T06:05:13.035Z,20.20
2018-06-02T06:07:40.885Z,20.50
2018-06-02T06:10:08.665Z,20.70
2018-06-02T06:12:36.443Z,20.50
2018-06-02T06:15:04.249Z,20.50
2018-06-02T06:17:31.886Z,20.30
2018-06-02T06:19:59.673Z,20.40
2018-06-02T06:22:27.316Z,20.10
2018-06-02T06:24:54.985Z,20.30
2018-06-02T06:27:22.790Z,20.40
2018-06-02T06:29:50.566Z,20.20
2018-06-02T06:32:18.207Z,20.40
2018-06-02T06:34:46.734Z,20.80
2018-06-02T06:37:14.531Z,20.80
2018-06-02T06:39:42.388Z,20.40
2018-06-02T06:42:10.189Z,19.70
2018-06-02T06:44:37.960Z,20.10
2018-06-02T06:47:07.537Z,19.90
2018-06-02T06:49:35.189Z,19.90
2018-06-02T06:52:03.829Z,20.60
2018-06-02T06:54:31.605Z,20.60
2018-06-02T06:56:59.304Z,20.70
2018-06-02T06:59:27.037Z,20.50
2018-06-02T07:01:54.757Z,20.50
2018-06-02T07:04:22.403Z,20.40
2018-06-02T07:06:50.182Z,20.50
2018-06-02T07:09:17.850Z,20.20
2018-06-02T07:11:45.532Z,20.70
2018-06-02T07:14:13.182Z,20.90
2018-06-02T07:16:41.041Z,20.80
2018-06-02T07:19:09.675Z,20.80
2018-06-02T07:21:37.476Z,20.80
2018-06-02T07:24:05.137Z,20.40
2018-06-02T07:26:32.900Z,20.60
2018-06-02T07:29:00.677Z,20.10
2018-06-02T07:31:28.659Z,19.80
2018-06-02T07:33:56.542Z,20.30
2018-06-02T07:36:24.181Z,20.30
2018-06-02T07:38:52.091Z,20.00
2018-06-02T07:41:19.867Z,20.40
2018-06-02T07:43:47.569Z,20.60
2018-06-02T07:46:15.240Z,20.60
2018-06-02T07:48:43.093Z,20.00
2018-06-02T07:51:10.870Z,20.10
2018-06-02T07:53:38.954Z,20.30
2018-06-02T07:56:06.938Z,20.30
2018-06-02T07:58:34.710Z,19.90
2018-06-02T08:01:02.388Z,20.10
2018-06-02T08:03:30.168Z,20.50
2018-06-02T08:05:57.976Z,20.70
2018-06-02T08:08:26.146Z,20.80
2018-06-02T08:10:54.644Z,20.10
2018-06-02T08:13:22.270Z,20.10
2018-06-02T08:15:49.941Z,20.40
2018-06-02T08:18:17.735Z,20.40
2018-06-02T08:20:45.440Z,20.70
2018-06-02T08:23:13.213Z,21.20
2018-06-02T08:25:41.069Z,21.50
2018-06-02T08:28:08.873Z,21.10
2018-06-02T08:30:37.764Z,21.30
2018-06-02T08:33:05.424Z,21.30
2018-06-02T08:35:33.196Z,21.10
2018-06-02T08:38:00.892Z,21.20
2018-06-02T08:40:28.668Z,20.10
2018-06-02T08:42:56.317Z,21.00
2018-06-02T08:45:24.307Z,21.60
2018-06-02T08:47:52.001Z,21.60
2018-06-02T08:50:19.859Z,21.70
2018-06-02T08:52:47.633Z,21.70
2018-06-02T08:55:15.409Z,21.80
2018-06-02T08:57:43.217Z,21.60
2018-06-02T09:00:10.989Z,21.90
2018-06-02T09:02:38.661Z,21.70
2018-06-02T09:05:06.546Z,21.30
2018-06-02T09:07:34.183Z,20.70
2018-06-02T09:10:01.862Z,21.00
2018-06-02T09:12:29.558Z,21.30
2018-06-02T09:14:57.238Z,21.50
2018-06-02T09:17:24.987Z,21.80
2018-06-02T09:19:52.686Z,21.40
2018-06-02T09:22:20.461Z,21.60
2018-06-02T09:24:48.100Z,21.80
2018-06-02T09:27:15.818Z,22.10
2018-06-02T09:29:43.563Z,22.60
2018-06-02T09:32:11.440Z,22.50
2018-06-02T09:34:39.139Z,23.40
2018-06-02T09:37:06.994Z,22.50
2018-06-02T09:39:34.688Z,22.00
2018-06-02T09:42:02.544Z,22.50
2018-06-02T09:44:30.320Z,21.50
2018-06-02T09:46:58.013Z,22.20
2018-06-02T09:49:25.692Z,22.00
2018-06-02T09:51:53.547Z,21.00
2018-06-02T09:54:21.324Z,21.20
2018-06-02T09:56:49.101Z,21.20
2018-06-02T09:59:16.877Z,21.70
2018-06-02T10:01:44.580Z,21.80
2018-06-02T10:04:12.331Z,22.10
2018-06-02T10:06:40.306Z,21.90
2018-06-02T10:09:07.985Z,22.50
2018-06-02T10:11:35.785Z,22.20
2018-06-02T10:14:03.535Z,23.30
2018-06-02T10:16:31.356Z,23.60
2018-06-02T10:18:59.109Z,23.70
2018-06-02T10:21:26.749Z,23.30
2018-06-02T10:23:54.615Z,22.20
2018-06-02T10:26:22.280Z,22.20
2018-06-02T10:28:50.808Z,21.70
2018-06-02T10:31:18.508Z,21.70
2018-06-02T10:33:46.284Z,22.00
2018-06-02T10:36:14.036Z,22.70
2018-06-02T10:38:41.915Z,23.60
2018-06-02T10:41:09.896Z,24.10
2018-06-02T10:43:37.891Z,23.90
2018-06-02T10:46:05.970Z,24.10
2018-06-02T10:48:33.657Z,23.40
2018-06-02T10:51:01.411Z,23.80
2018-06-02T10:53:29.291Z,23.60
2018-06-02T10:55:57.272Z,23.80
2018-06-02T10:58:25.188Z,24.00
2018-06-02T11:00:52.929Z,23.90
2018-06-02T11:03:20.910Z,23.50
2018-06-02T11:05:48.895Z,23.50
2018-06-02T11:08:16.690Z,23.20
2018-06-02T11:10:44.348Z,22.40
2018-06-02T11:13:12.032Z,22.40
2018-06-02T11:15:39.706Z,22.80
2018-06-02T11:18:07.380Z,22.60
2018-06-02T11:20:35.456Z,22.80
2018-06-02T11:23:03.096Z,22.80
2018-06-02T11:25:30.812Z,22.90
2018-06-02T11:27:58.568Z,22.60
2018-06-02T11:30:26.446Z,22.40
2018-06-02T11:32:54.223Z,22.10
2018-06-02T11:35:21.999Z,21.90
2018-06-02T11:37:50.085Z,22.40
2018-06-02T11:40:18.167Z,22.30
2018-06-02T11:42:45.868Z,22.50
2018-06-02T11:45:13.636Z,23.10
2018-06-02T11:47:41.287Z,22.60
2018-06-02T11:50:08.984Z,22.50
2018-06-02T11:52:36.853Z,22.90
2018-06-02T11:55:04.641Z,22.70
2018-06-02T11:57:32.290Z,23.10
2018-06-02T12:00:00.168Z,23.50
2018-06-02T12:02:28.154Z,23.90
2018-06-02T12:04:56.650Z,23.90
2018-06-02T12:07:24.349Z,23.30
2018-06-02T12:09:52.915Z,22.90
2018-06-02T12:12:20.609Z,22.90
2018-06-02T12:14:48.270Z,22.80
2018-06-02T12:17:16.345Z,23.00
2018-06-02T12:19:44.125Z,23.60
2018-06-02T12:22:11.788Z,23.20
2018-06-02T12:24:39.495Z,23.80
2018-06-02T12:27:07.268Z,22.90
2018-06-02T12:29:35.022Z,23.40
2018-06-02T12:32:02.692Z,24.20
2018-06-02T12:34:30.516Z,24.40
2018-06-02T12:36:58.478Z,24.30
2018-06-02T12:39:26.126Z,24.70
2018-06-02T12:41:53.983Z,23.30
2018-06-02T12:44:21.616Z,23.80
2018-06-02T12:46:49.456Z,23.50
2018-06-02T12:49:17.232Z,24.20
2018-06-02T12:51:45.230Z,24.70
2018-06-02T12:54:12.885Z,25.00
2018-06-02T12:56:40.664Z,24.20
2018-06-02T12:59:08.296Z,23.30
2018-06-02T13:01:36.935Z,24.70
2018-06-02T13:04:04.710Z,24.70
2018-06-02T13:06:32.496Z,24.90
2018-06-02T13:09:00.267Z,25.00
2018-06-02T13:11:28.098Z,24.90
2018-06-02T13:13:56.110Z,25.10
2018-06-02T13:16:23.864Z,25.20
2018-06-02T13:18:52.316Z,25.00
2018-06-02T13:21:19.984Z,25.00
2018-06-02T13:23:47.743Z,25.10
2018-06-02T13:26:15.519Z,25.20
2018-06-02T13:28:43.293Z,25.50
2018-06-02T13:31:10.989Z,24.90
2018-06-02T13:33:38.657Z,25.30
2018-06-02T13:36:06.418Z,25.70
2018-06-02T13:38:34.197Z,25.40
2018-06-02T13:41:01.971Z,25.00
2018-06-02T13:43:29.849Z,25.10
2018-06-02T13:45:57.837Z,24.90
2018-06-02T13:48:26.881Z,25.00
2018-06-02T13:50:54.802Z,24.50
2018-06-02T13:53:22.598Z,24.70
2018-06-02T13:55:50.388Z,24.70
2018-06-02T13:58:18.146Z,24.90
2018-06-02T14:00:45.922Z,25.00
2018-06-02T14:03:13.701Z,25.00
2018-06-02T14:05:41.475Z,24.90
2018-06-02T14:08:09.251Z,24.90
2018-06-02T14:10:37.027Z,24.60
2018-06-02T14:13:04.684Z,24.50
2018-06-02T14:15:32.684Z,24.40
2018-06-02T14:18:00.481Z,23.50
2018-06-02T14:20:28.337Z,23.80
2018-06-02T14:22:56.113Z,23.90
2018-06-02T14:25:24.040Z,24.10
2018-06-02T14:27:51.790Z,23.80
2018-06-02T14:30:19.461Z,23.80
2018-06-02T14:32:47.321Z,24.10
2018-06-02T14:35:15.022Z,24.20
2018-06-02T14:37:42.874Z,24.50
2018-06-02T14:40:10.593Z,24.50
2018-06-02T14:42:38.348Z,24.50
2018-06-02T14:45:05.984Z,24.70
2018-06-02T14:47:33.777Z,24.80
2018-06-02T14:50:01.857Z,24.40
2018-06-02T14:52:29.740Z,24.60
2018-06-02T14:54:57.759Z,24.70
2018-06-02T14:57:25.674Z,24.70
2018-06-02T14:59:53.396Z,24.70
2018-06-02T15:02:21.146Z,24.50
2018-06-02T15:04:48.923Z,24.00
2018-06-02T15:07:16.905Z,23.80
2018-06-02T15:09:44.683Z,23.80
2018-06-02T15:12:12.461Z,23.50
2018-06-02T15:14:40.153Z,23.20
2018-06-02T15:17:08.011Z,23.70
2018-06-02T15:19:35.640Z,23.70
2018-06-02T15:22:03.304Z,23.40
2018-06-02T15:24:31.773Z,23.80
2018-06-02T15:26:59.761Z,23.80
2018-06-02T15:29:27.610Z,24.00
2018-06-02T15:31:55.569Z,24.20
2018-06-02T15:34:23.374Z,24.20
2018-06-02T15:36:51.017Z,24.10
2018-06-02T15:39:18.736Z,24.50
2018-06-02T15:41:47.241Z,24.50
2018-06-02T15:44:15.020Z,24.50
2018-06-02T15:46:42.676Z,24.60
2018-06-02T15:49:10.361Z,24.70
2018-06-02T15:51:38.046Z,24.90
2018-06-02T15:54:05.729Z,24.40
2018-06-02T15:56:33.478Z,24.40
2018-06-02T15:59:01.259Z,24.50
2018-06-02T16:01:29.141Z,24.60
2018-06-02T16:03:57.759Z,24.50
2018-06-02T16:06:26.229Z,24.50
2018-06-02T16:08:54.015Z,24.50
2018-06-02T16:11:21.657Z,24.70
2018-06-02T16:13:49.423Z,24.70
2018-06-02T16:16:17.073Z,25.00
2018-06-02T16:18:44.877Z,25.00
2018-06-02T16:21:12.654Z,25.10
2018-06-02T16:23:40.352Z,25.00
2018-06-02T16:26:08.203Z,24.40
2018-06-02T16:28:35.904Z,23.90
2018-06-02T16:31:03.657Z,24.70
2018-06-02T16:33:31.431Z,24.40
2018-06-02T16:35:59.361Z,24.20
2018-06-02T16:38:27.905Z,24.80
2018-06-02T16:40:56.008Z,24.90
2018-06-02T16:43:23.870Z,24.50
2018-06-02T16:45:51.743Z,24.70
2018-06-02T16:48:19.519Z,24.10
2018-06-02T16:50:47.425Z,24.00
2018-06-02T16:53:15.275Z,24.50
2018-06-02T16:55:43.060Z,24.40
2018-06-02T17:15:13.204Z,24.80
2018-06-02T17:17:42.304Z,25.00
2018-06-02T17:21:42.521Z,23.00
2018-06-02T17:26:40.508Z,22.80
2018-06-02T17:29:09.817Z,22.80
2018-06-02T17:31:39.037Z,22.90
2018-06-02T17:34:08.083Z,22.20
2018-06-02T17:36:37.093Z,22.20
2018-06-02T17:39:07.256Z,21.90
2018-06-02T17:41:36.320Z,22.00
2018-06-02T17:44:05.381Z,22.40
2018-06-02T17:46:34.520Z,22.80
2018-06-02T17:49:03.686Z,22.80
2018-06-02T17:51:32.807Z,22.70
2018-06-02T17:54:01.910Z,22.60
2018-06-02T17:56:30.964Z,22.60
2018-06-02T17:59:00.217Z,22.60
2018-06-02T18:01:29.400Z,22.50
2018-06-02T18:03:58.616Z,22.50
2018-06-02T18:06:27.813Z,22.50
2018-06-02T18:08:57.172Z,22.40
2018-06-02T18:11:26.387Z,22.40
2018-06-02T18:13:55.700Z,22.40
2018-06-02T18:16:24.861Z,22.60
2018-06-02T18:18:54.026Z,22.50
2018-06-02T18:21:23.121Z,22.60
2018-06-02T18:23:52.205Z,22.40
2018-06-02T18:26:21.432Z,22.50
2018-06-02T18:28:50.749Z,22.30
2018-06-02T18:31:19.920Z,22.40
2018-06-02T18:33:49.024Z,21.90
2018-06-02T18:36:18.281Z,21.90
2018-06-02T18:38:47.362Z,21.60
2018-06-02T18:41:16.701Z,21.80
2018-06-02T18:43:46.004Z,21.80
2018-06-02T18:46:15.441Z,22.00
2018-06-02T18:48:44.514Z,21.80
2018-06-02T18:51:13.632Z,21.70
2018-06-02T18:53:42.818Z,21.80
2018-06-02T18:56:12.174Z,21.80
2018-06-02T18:58:41.454Z,21.70
2018-06-02T19:01:10.909Z,21.70
2018-06-02T19:03:40.396Z,21.80
2018-06-02T19:06:09.508Z,21.70
2018-06-02T19:08:38.784Z,21.50
2018-06-02T19:11:08.141Z,21.70
2018-06-02T19:13:37.304Z,21.60
2018-06-02T19:16:06.659Z,21.60
2018-06-02T19:18:35.928Z,21.20
2018-06-02T19:21:05.096Z,21.10
2018-06-02T19:23:34.257Z,20.90
2018-06-02T19:26:03.557Z,21.00
2018-06-02T19:28:32.800Z,21.10
2018-06-02T19:31:01.985Z,21.50
2018-06-02T19:33:31.232Z,21.30
2018-06-02T19:36:00.297Z,21.40
2018-06-02T19:38:29.540Z,21.90
2018-06-02T19:40:58.765Z,21.70
2018-06-02T19:43:28.086Z,21.80
2018-06-02T19:45:57.240Z,21.80
2018-06-02T19:48:26.496Z,22.00
2018-06-02T19:50:55.548Z,21.10
2018-06-02T19:53:24.713Z,21.20
2018-06-02T19:55:53.920Z,21.10
2018-06-02T19:58:23.002Z,21.60
2018-06-02T20:00:52.341Z,22.00
2018-06-02T20:03:21.645Z,22.10
2018-06-02T20:05:51.125Z,21.90
2018-06-02T20:08:20.280Z,21.90
2018-06-02T20:10:49.353Z,22.20
2018-06-02T20:13:18.480Z,21.70
2018-06-02T20:15:47.564Z,21.20
2018-06-02T20:18:16.701Z,21.70
2018-06-02T20:20:45.989Z,21.40
2018-06-02T20:23:15.276Z,21.80
2018-06-02T20:25:44.265Z,21.60
2018-06-02T20:30:42.145Z,21.80
2018-06-02T20:33:11.246Z,22.00
2018-06-02T20:35:40.456Z,22.10
2018-06-02T20:38:09.632Z,22.10
2018-06-02T20:40:38.773Z,22.10
2018-06-02T20:43:07.980Z,22.00
2018-06-02T20:45:37.396Z,21.90
2018-06-02T20:48:06.712Z,21.90
2018-06-02T20:50:35.933Z,22.00
2018-06-02T20:53:05.199Z,21.90
2018-06-02T20:55:34.437Z,21.90
2018-06-02T20:58:03.621Z,21.80
2018-06-02T21:00:32.965Z,21.70
2018-06-02T21:03:02.228Z,21.60
2018-06-02T21:05:31.565Z,21.70
2018-06-02T21:08:00.751Z,21.80
2018-06-02T21:10:29.789Z,21.80
2018-06-02T21:12:58.988Z,21.70
2018-06-02T21:15:28.450Z,21.70
2018-06-02T21:17:57.485Z,21.70
2018-06-02T21:20:26.760Z,21.80
2018-06-02T21:22:55.968Z,21.80
2018-06-02T21:25:25.435Z,21.80
2018-06-02T21:27:54.999Z,21.80
2018-06-02T21:30:24.274Z,21.80
2018-06-02T21:32:53.523Z,21.80
2018-06-02T21:35:22.689Z,21.80
2018-06-02T21:37:52.021Z,21.60
2018-06-02T21:40:21.297Z,21.50
2018-06-02T21:42:50.731Z,21.60
2018-06-02T21:45:19.921Z,21.40
2018-06-02T21:47:49.273Z,21.50
2018-06-02T21:50:18.354Z,21.40
2018-06-02T21:52:47.495Z,21.30
2018-06-02T21:55:16.679Z,21.30
2018-06-02T21:57:46.017Z,21.10
2018-06-02T22:00:15.325Z,21.30
2018-06-02T22:02:44.744Z,21.30
2018-06-02T22:05:13.808Z,21.20
2018-06-02T22:07:43.376Z,21.30
2018-06-02T22:10:12.840Z,20.90
2018-06-02T22:12:42.113Z,21.30
2018-06-02T22:15:11.860Z,21.50
2018-06-02T22:17:41.138Z,21.10
2018-06-02T22:20:10.137Z,21.30
2018-06-02T22:22:39.313Z,21.50
2018-06-02T22:25:08.715Z,21.70
2018-06-02T22:27:37.828Z,21.60
2018-06-02T22:30:06.989Z,21.70
2018-06-02T22:32:36.144Z,21.30
2018-06-02T22:35:05.501Z,21.20
2018-06-02T22:37:34.685Z,21.30
2018-06-02T22:40:04.146Z,21.30
2018-06-02T22:42:33.419Z,21.30
2018-06-02T22:45:02.659Z,21.40
2018-06-02T22:47:31.813Z,21.50
2018-06-02T22:50:01.212Z,21.50
2018-06-02T22:52:30.443Z,21.70
2018-06-02T22:54:59.912Z,21.20
2018-06-02T22:57:29.313Z,21.50
2018-06-02T22:59:58.635Z,21.40
2018-06-02T23:02:27.829Z,21.00
2018-06-02T23:04:57.275Z,21.30
2018-06-02T23:07:26.641Z,21.50
2018-06-02T23:09:56.098Z,20.90
2018-06-02T23:12:25.292Z,20.80
2018-06-02T23:14:54.528Z,21.00
2018-06-02T23:17:23.695Z,21.30
2018-06-02T23:19:52.744Z,21.00
2018-06-02T23:22:33.745Z,21.10
2018-06-02T23:25:02.873Z,21.10
2018-06-02T23:27:31.954Z,21.10
2018-06-02T23:30:01.153Z,21.10
2018-06-02T23:32:30.505Z,20.90
2018-06-02T23:34:59.720Z,20.70
2018-06-02T23:37:28.917Z,20.70
2018-06-02T23:39:58.200Z,20.70
2018-06-02T23:42:27.756Z,20.90
2018-06-02T23:44:57.043Z,21.20
2018-06-02T23:47:26.281Z,21.30
2018-06-02T23:49:55.357Z,21.30
2018-06-02T23:52:24.589Z,21.50
2018-06-02T23:54:53.660Z,21.30
2018-06-02T23:57:23.023Z,21.10
2018-06-02T23:59:52.180Z,21.10
